This is the latest recevied weather packets stored in our database for station/object OK1PMP-6. If no packets are shown the sender has not sent any weather packets the latest 10 day(s).
| Time | Temp. | Humidity | Pressure | Rain* | Wind** | Luminosity | Snow |
|---|---|---|---|---|---|---|---|
| 1777632937 | 20.56° C | 33% | 1031.1 hPa | 0 mm | - | 713 W/m² | - |
| 1777632041 | 20.56° C | 33% | 1031.3 hPa | 0 mm | - | 696 W/m² | - |
| 1777631128 | 20° C | 35% | 1031.8 hPa | 0 mm | - | 719 W/m² | - |
| 1777630226 | 21.11° C | 35% | 1031.7 hPa | 0 mm | - | 702 W/m² | - |
| 1777629325 | 20.56° C | 35% | 1031.8 hPa | 0 mm | - | 696 W/m² | - |
| 1777628423 | 20° C | 36% | 1032 hPa | 0 mm | - | 692 W/m² | - |
| 1777627518 | 18.89° C | 39% | 1032.1 hPa | 0 mm | - | 673 W/m² | - |
| 1777626616 | 18.89° C | 38% | 1032.2 hPa | 0 mm | - | 659 W/m² | - |
| 1777625719 | 18.33° C | 43% | 1032.2 hPa | 0 mm | - | 643 W/m² | - |
| 1777624812 | 17.78° C | 42% | 1032 hPa | 0 mm | - | 621 W/m² | - |
| 1777623911 | 16.67° C | 47% | 1032.3 hPa | 0 mm | - | 597 W/m² | - |
| 1777623001 | 15° C | 50% | 1032.4 hPa | 0 mm | - | 568 W/m² | - |
| 1777622102 | 13.89° C | 53% | 1032.5 hPa | 0 mm | - | 543 W/m² | - |
| 1777621206 | 12.78° C | 56% | 1032.8 hPa | 0 mm | - | 509 W/m² | - |
| 1777620299 | 11.67° C | 60% | 1032.6 hPa | 0 mm | - | 471 W/m² | - |
| 1777619401 | 10.56° C | 61% | 1032.7 hPa | 0 mm | - | 436 W/m² | - |
| 1777618493 | 9.44° C | 65% | 1032.7 hPa | 0 mm | - | 398 W/m² | - |
| 1777617588 | 7.78° C | 68% | 1032.8 hPa | 0 mm | - | 354 W/m² | - |
| 1777616681 | 7.22° C | 68% | 1032.9 hPa | 0 mm | - | 312 W/m² | - |
| 1777615774 | 6.67° C | 71% | 1032.8 hPa | 0 mm | - | 267 W/m² | - |
| 1777614874 | 5° C | 74% | 1032.9 hPa | 0 mm | - | 224 W/m² | - |
| 1777613962 | 4.44° C | 76% | 1032.9 hPa | 0 mm | - | 179 W/m² | - |
| 1777613064 | 3.33° C | 77% | 1032.7 hPa | 0 mm | - | 143 W/m² | - |
| 1777612159 | 2.78° C | 80% | 1032.9 hPa | 0 mm | - | 107 W/m² | - |
| 1777611245 | 1.11° C | 85% | 1033 hPa | 0 mm | - | 75 W/m² | - |
* Rain latest hour (hover to see other rain measurements)
** Current wind speed in m/s (hover to see current wind gust speed)